Antonino, Kansas
Current Conditions -  °F | °C
As of 4:15 AM on Wednesday 26 Nov 2014 (Local Time) from KHYS Reporting Station
Few Clouds Few Clouds  
Wind Chill: 32°   Ceiling: Unl
Heat Index: 41°   Visibility: 10mi
Dew Point: 27°   Wind: 17mph
Humidity: 57%   Direction: 310°NW
Pressure: 30.04"   Gusts: NA
Location:  38.8338°N, 99.3297°W
Report Text: KHYS 261015Z AUTO 31015KT 10SM FEW120 05/M03 A3004 RMK AO1
Loading
Personal Weather Stations






























Interactive Weather Map New forecast layout! Learn more

10-Day Weather Forecast

Advertisements
Track Severe Weather on mobile